createdAt,value
2023-01-19T00:01:15.184Z,98271.13
2023-01-19T00:04:02.737Z,98282.13
2023-01-19T00:06:50.107Z,98279.69
2023-01-19T00:09:38.334Z,98277.25
2023-01-19T00:12:25.649Z,98279.03
2023-01-19T00:15:14.502Z,98272.34
2023-01-19T00:18:02.017Z,98269.81
2023-01-19T00:20:49.809Z,98271.56
2023-01-19T00:23:37.019Z,98277.41
2023-01-19T00:26:24.265Z,98281.75
2023-01-19T00:29:12.914Z,98281.00
2023-01-19T00:32:01.755Z,98280.41
2023-01-19T00:34:52.406Z,98280.47
2023-01-19T00:37:39.788Z,98279.56
2023-01-19T00:40:26.950Z,98279.56
2023-01-19T00:43:14.092Z,98284.53
2023-01-19T00:46:01.325Z,98291.22
2023-01-19T00:48:49.839Z,98288.69
2023-01-19T00:51:37.503Z,98292.13
2023-01-19T00:54:26.868Z,98291.31
2023-01-19T00:57:14.451Z,98298.00
2023-01-19T01:00:01.751Z,98303.78
2023-01-19T01:02:50.309Z,98299.44
2023-01-19T01:05:42.657Z,98303.69
2023-01-19T01:08:29.831Z,98309.56
2023-01-19T01:11:16.827Z,98304.50
2023-01-19T01:14:04.830Z,98305.41
2023-01-19T01:16:53.697Z,98306.38
2023-01-19T01:19:40.908Z,98308.13
2023-01-19T01:22:29.430Z,98309.81
2023-01-19T01:25:19.230Z,98318.22
2023-01-19T01:28:08.794Z,98318.03
2023-01-19T01:30:56.531Z,98323.91
2023-01-19T01:33:43.781Z,98325.53
2023-01-19T01:36:33.444Z,98321.31
2023-01-19T01:39:22.556Z,98330.50
2023-01-19T01:42:18.696Z,98323.75
2023-01-19T01:45:12.160Z,98326.09
2023-01-19T01:48:04.231Z,98318.34
2023-01-19T01:51:19.056Z,98315.72
2023-01-19T01:54:15.060Z,98319.00
2023-01-19T01:57:12.291Z,98315.47
2023-01-19T02:00:00.370Z,98312.75
2023-01-19T02:02:54.976Z,98328.69
2023-01-19T02:05:43.594Z,98326.09
2023-01-19T02:08:54.689Z,98323.38
2023-01-19T02:12:00.645Z,98323.38
2023-01-19T02:14:49.086Z,98322.56
2023-01-19T02:17:36.357Z,98320.84
2023-01-19T02:20:27.459Z,98318.31
2023-01-19T02:23:21.524Z,98317.41
2023-01-19T02:26:13.527Z,98323.19
2023-01-19T02:29:03.704Z,98320.56
2023-01-19T02:31:50.780Z,98315.41
2023-01-19T02:34:38.215Z,98315.34
2023-01-19T02:37:27.999Z,98314.38
2023-01-19T02:40:20.404Z,98317.59
2023-01-19T02:43:09.885Z,98310.75
2023-01-19T02:45:57.323Z,98310.56
2023-01-19T02:48:44.964Z,98304.59
2023-01-19T02:51:32.513Z,98299.56
2023-01-19T02:54:52.083Z,98308.75
2023-01-19T02:57:54.468Z,98305.31
2023-01-19T03:00:54.556Z,98306.13
2023-01-19T03:03:52.143Z,98306.94
2023-01-19T03:06:48.060Z,98310.19
2023-01-19T03:09:43.366Z,98299.16
2023-01-19T03:12:39.005Z,98312.66
2023-01-19T03:15:33.065Z,98318.53
2023-01-19T03:18:24.485Z,98315.09
2023-01-19T03:21:14.421Z,98316.00
2023-01-19T03:24:06.698Z,98317.53
2023-01-19T03:27:01.345Z,98311.63
2023-01-19T03:29:54.527Z,98314.16
2023-01-19T03:32:47.119Z,98319.97
2023-01-19T03:35:41.082Z,98321.59
2023-01-19T03:38:30.288Z,98318.16
2023-01-19T03:41:20.839Z,98315.56
2023-01-19T03:44:09.054Z,98323.84
2023-01-19T03:46:57.899Z,98322.84
2023-01-19T03:49:48.573Z,98329.56
2023-01-19T03:52:37.245Z,98335.31
2023-01-19T03:55:24.565Z,98336.88
2023-01-19T03:58:11.776Z,98351.06
2023-01-19T04:00:58.999Z,98342.56
2023-01-19T04:03:47.283Z,98339.06
2023-01-19T04:06:34.173Z,98341.50
2023-01-19T04:09:22.999Z,98339.66
2023-01-19T04:12:10.704Z,98342.09
2023-01-19T04:14:57.697Z,98343.63
2023-01-19T04:17:44.612Z,98351.06
2023-01-19T04:20:31.825Z,98340.03
2023-01-19T04:23:18.967Z,98340.03
2023-01-19T04:26:09.908Z,98344.94
2023-01-19T04:28:57.175Z,98337.22
2023-01-19T04:31:44.956Z,98327.00
2023-01-19T04:34:32.440Z,98320.22
2023-01-19T04:37:19.584Z,98320.94
2023-01-19T04:40:09.206Z,98330.19
2023-01-19T04:42:57.550Z,98327.66
2023-01-19T04:45:45.178Z,98330.97
2023-01-19T04:48:32.470Z,98337.78
2023-01-19T04:51:19.414Z,98335.25
2023-01-19T04:54:09.028Z,98336.03
2023-01-19T04:56:56.544Z,98336.84
2023-01-19T04:59:44.982Z,98335.94
2023-01-19T05:02:32.194Z,98348.63
2023-01-19T05:05:19.851Z,98335.84
2023-01-19T05:08:07.356Z,98350.16
2023-01-19T05:10:54.266Z,98347.53
2023-01-19T05:13:41.450Z,98355.13
2023-01-19T05:16:29.920Z,98350.88
2023-01-19T05:19:17.235Z,98359.19
2023-01-19T05:22:05.531Z,98366.78
2023-01-19T05:24:53.171Z,98354.88
2023-01-19T05:27:40.347Z,98362.47
2023-01-19T05:30:27.299Z,98361.53
2023-01-19T05:33:15.673Z,98357.19
2023-01-19T05:36:04.311Z,98358.84
2023-01-19T05:38:51.673Z,98359.72
2023-01-19T05:41:38.593Z,98357.19
2023-01-19T05:44:25.583Z,98354.66
2023-01-19T05:47:12.928Z,98357.19
2023-01-19T05:50:01.509Z,98363.91
2023-01-19T05:52:48.801Z,98364.72
2023-01-19T05:55:36.349Z,98365.59
2023-01-19T05:58:23.822Z,98374.84
2023-01-19T06:01:12.098Z,98367.25
2023-01-19T06:03:59.362Z,98361.28
2023-01-19T06:06:49.005Z,98359.63
2023-01-19T06:09:36.406Z,98358.84
2023-01-19T06:12:23.534Z,98363.91
2023-01-19T06:15:11.504Z,98352.13
2023-01-19T06:17:58.562Z,98358.09
2023-01-19T06:20:45.805Z,98370.75
2023-01-19T06:23:36.873Z,98364.06
2023-01-19T06:26:24.263Z,98373.41
2023-01-19T06:29:12.280Z,98374.28
2023-01-19T06:31:59.790Z,98386.16
2023-01-19T06:34:47.138Z,98390.38
2023-01-19T06:37:34.219Z,98394.66
2023-01-19T06:40:23.022Z,98400.53
2023-01-19T06:43:11.090Z,98391.41
2023-01-19T06:45:58.568Z,98391.41
2023-01-19T06:48:45.620Z,98401.53
2023-01-19T06:51:32.847Z,98411.66
2023-01-19T06:54:20.224Z,98406.59
2023-01-19T06:57:08.546Z,98405.78
2023-01-19T06:59:55.907Z,98406.50
2023-01-19T07:02:44.041Z,98410.66
2023-01-19T07:05:30.938Z,98413.19
2023-01-19T07:08:18.053Z,98412.28
2023-01-19T07:11:26.904Z,98413.13
2023-01-19T07:14:17.606Z,98418.97
2023-01-19T07:17:04.824Z,98418.09
2023-01-19T07:19:52.095Z,98423.06
2023-01-19T07:22:39.137Z,98428.13
2023-01-19T07:25:27.020Z,98424.69
2023-01-19T07:28:16.462Z,98423.66
2023-01-19T07:31:05.774Z,98428.75
2023-01-19T07:33:52.804Z,98418.53
2023-01-19T07:36:39.821Z,98426.13
2023-01-19T07:39:27.121Z,98422.69
2023-01-19T07:42:14.363Z,98433.56
2023-01-19T07:45:02.110Z,98442.06
2023-01-19T07:47:51.841Z,98437.81
2023-01-19T07:50:38.853Z,98450.38
2023-01-19T07:53:25.932Z,98452.91
2023-01-19T07:56:13.122Z,98451.19
2023-01-19T07:59:00.562Z,98456.16
2023-01-19T08:01:47.689Z,98456.16
2023-01-19T08:04:36.021Z,98466.28
2023-01-19T08:07:23.340Z,98467.94
2023-01-19T08:10:12.369Z,98475.44
2023-01-19T08:13:00.073Z,98468.63
2023-01-19T08:15:51.374Z,98468.63
2023-01-19T08:18:38.396Z,98467.75
2023-01-19T08:21:27.113Z,98473.72
2023-01-19T08:24:21.463Z,98471.13
2023-01-19T08:27:09.915Z,98472.81
2023-01-19T08:29:57.058Z,98473.66
2023-01-19T08:32:44.224Z,98478.63
2023-01-19T08:35:31.516Z,98471.00
2023-01-19T08:38:20.644Z,98463.41
2023-01-19T08:41:07.942Z,98466.66
2023-01-19T08:43:54.958Z,98467.56
2023-01-19T08:46:42.225Z,98464.13
2023-01-19T08:49:29.367Z,98478.44
2023-01-19T08:52:16.479Z,98480.06
2023-01-19T08:55:05.826Z,98471.56
2023-01-19T08:57:53.736Z,98479.97
2023-01-19T09:00:41.321Z,98480.78
2023-01-19T09:03:28.653Z,98477.34
2023-01-19T09:06:18.536Z,98483.22
2023-01-19T09:09:06.108Z,98484.84
2023-01-19T09:11:58.096Z,98479.69
2023-01-19T09:14:45.425Z,98488.22
2023-01-19T09:17:32.567Z,98482.22
2023-01-19T09:20:19.845Z,98478.78
2023-01-19T09:23:07.366Z,98480.44
2023-01-19T09:25:59.502Z,98487.94
2023-01-19T09:28:48.259Z,98487.94
2023-01-19T09:31:35.659Z,98490.47
2023-01-19T09:34:23.217Z,98486.09
2023-01-19T09:37:10.768Z,98481.88
2023-01-19T09:39:57.931Z,98481.88
2023-01-19T09:42:50.006Z,98486.03
2023-01-19T09:45:47.127Z,98485.09
2023-01-19T09:48:45.976Z,98481.69
2023-01-19T09:51:38.008Z,98478.34
2023-01-19T09:54:34.199Z,98471.53
2023-01-19T09:57:23.241Z,98483.31
2023-01-19T10:00:17.549Z,98469.75
2023-01-19T10:03:16.327Z,98472.28
2023-01-19T10:06:07.550Z,98479.69
2023-01-19T10:09:04.174Z,98478.69
2023-01-19T10:11:59.140Z,98478.59
2023-01-19T10:14:53.615Z,98475.88
2023-01-19T10:17:51.270Z,98470.59
2023-01-19T10:20:46.395Z,98484.75
2023-01-19T10:23:46.063Z,98483.72
2023-01-19T10:26:36.417Z,98479.31
2023-01-19T10:29:27.949Z,98485.91
2023-01-19T10:32:19.926Z,98490.88
2023-01-19T10:35:21.816Z,98484.81
2023-01-19T10:38:16.219Z,98484.81
2023-01-19T10:41:08.870Z,98480.47
2023-01-19T10:44:05.512Z,98483.91
2023-01-19T10:46:54.533Z,98476.22
2023-01-19T10:49:43.665Z,98482.91
2023-01-19T10:52:34.956Z,98486.16
2023-01-19T10:55:30.497Z,98476.75
2023-01-19T10:58:31.645Z,98480.88
2023-01-19T11:01:22.253Z,98477.44
2023-01-19T11:04:29.855Z,98473.22
2023-01-19T11:07:21.395Z,98477.44
2023-01-19T11:10:24.923Z,98478.28
2023-01-19T11:13:15.998Z,98480.00
2023-01-19T11:16:11.603Z,98483.34
2023-01-19T11:19:02.129Z,98478.28
2023-01-19T11:21:49.465Z,98481.63
2023-01-19T11:24:39.689Z,98482.53
2023-01-19T11:27:27.349Z,98484.16
2023-01-19T11:30:21.995Z,98487.41
2023-01-19T11:33:26.172Z,98486.59
2023-01-19T11:36:21.009Z,98485.78
2023-01-19T11:39:24.683Z,98473.91
2023-01-19T11:42:14.342Z,98478.19
2023-01-19T11:45:11.367Z,98480.72
2023-01-19T11:48:04.316Z,98479.00
2023-01-19T11:50:51.786Z,98479.00
2023-01-19T11:53:39.394Z,98476.44
2023-01-19T11:56:30.016Z,98481.44
2023-01-19T11:59:17.239Z,98479.72
2023-01-19T12:02:17.093Z,98472.03
2023-01-19T12:05:12.775Z,98473.63
2023-01-19T12:08:05.354Z,98481.22
2023-01-19T12:10:57.392Z,98468.53
2023-01-19T12:13:45.400Z,98473.63
2023-01-19T12:16:35.606Z,98473.56
2023-01-19T12:19:27.881Z,98466.84
2023-01-19T12:22:18.580Z,98471.81
2023-01-19T12:25:17.450Z,98470.19
2023-01-19T12:28:06.525Z,98465.94
2023-01-19T12:30:54.085Z,98469.38
2023-01-19T12:33:42.231Z,98465.13
2023-01-19T12:36:40.356Z,98460.03
2023-01-19T12:39:28.779Z,98454.16
2023-01-19T12:42:20.432Z,98454.97
2023-01-19T12:45:14.766Z,98459.25
2023-01-19T12:48:03.034Z,98454.16
2023-01-19T12:50:50.528Z,98454.97
2023-01-19T12:53:39.061Z,98454.97
2023-01-19T12:56:32.886Z,98454.16
2023-01-19T12:59:27.262Z,98460.03
2023-01-19T13:02:48.842Z,98456.69
2023-01-19T13:06:00.036Z,98455.06
2023-01-19T13:09:01.767Z,98455.88
2023-01-19T13:12:29.599Z,98449.28
2023-01-19T13:15:35.863Z,98454.38
2023-01-19T13:18:26.344Z,98456.81
2023-01-19T13:21:14.237Z,98455.88
2023-01-19T13:24:10.956Z,98450.78
2023-01-19T13:27:03.382Z,98458.41
2023-01-19T13:29:52.791Z,98454.16
2023-01-19T13:32:43.499Z,98449.91
2023-01-19T13:35:30.688Z,98457.50
2023-01-19T13:38:18.331Z,98460.88
2023-01-19T13:41:06.233Z,98462.47
2023-01-19T13:44:01.357Z,98462.47
2023-01-19T13:46:50.759Z,98464.22
2023-01-19T13:49:41.355Z,98471.81
2023-01-19T13:52:30.509Z,98472.63
2023-01-19T13:55:20.458Z,98476.00
2023-01-19T13:58:22.485Z,98465.84
2023-01-19T14:01:23.120Z,98474.25
2023-01-19T14:04:30.283Z,98475.16
2023-01-19T14:07:26.432Z,98475.16
2023-01-19T14:10:20.325Z,98478.53
2023-01-19T14:13:14.907Z,98479.34
2023-01-19T14:16:07.320Z,98478.53
2023-01-19T14:19:02.354Z,98483.50
2023-01-19T14:22:03.096Z,98481.88
2023-01-19T14:24:50.232Z,98478.53
2023-01-19T14:27:39.269Z,98481.88
2023-01-19T14:30:27.021Z,98485.25
2023-01-19T14:33:36.273Z,98488.69
2023-01-19T14:36:36.260Z,98493.75
2023-01-19T14:39:27.849Z,98488.69
2023-01-19T14:42:24.123Z,98493.75
2023-01-19T14:45:21.515Z,98492.91
2023-01-19T14:48:18.206Z,98495.44
2023-01-19T14:51:06.860Z,98498.00
2023-01-19T14:53:58.887Z,98501.34
2023-01-19T14:56:47.899Z,98501.34
2023-01-19T14:59:35.315Z,98502.16
2023-01-19T15:02:22.612Z,98505.53
2023-01-19T15:05:10.939Z,98516.56
2023-01-19T15:07:58.347Z,98506.44
2023-01-19T15:10:46.562Z,98517.38
2023-01-19T15:13:35.182Z,98505.53
2023-01-19T15:16:23.074Z,98504.69
2023-01-19T15:19:13.449Z,98515.69
2023-01-19T15:22:00.475Z,98519.13
2023-01-19T15:24:47.658Z,98510.59
2023-01-19T15:27:34.686Z,98515.69
2023-01-19T15:30:27.863Z,98521.56
2023-01-19T15:33:18.730Z,98519.00
2023-01-19T15:36:06.680Z,98527.53
2023-01-19T15:38:53.874Z,98519.13
2023-01-19T15:41:41.531Z,98527.63
2023-01-19T15:44:28.610Z,98527.63
2023-01-19T15:47:17.244Z,98527.63
2023-01-19T15:50:05.356Z,98526.00
2023-01-19T15:52:52.686Z,98526.88
2023-01-19T15:55:39.780Z,98528.72
2023-01-19T15:58:28.425Z,98533.00
2023-01-19T16:01:18.175Z,98528.81
2023-01-19T16:04:11.120Z,98521.31
2023-01-19T16:06:58.252Z,98536.53
2023-01-19T16:09:45.288Z,98540.75
2023-01-19T16:12:32.373Z,98539.97
2023-01-19T16:15:20.618Z,98544.22
2023-01-19T16:18:07.849Z,98543.38
2023-01-19T16:20:56.598Z,98540.84
2023-01-19T16:23:44.050Z,98552.72
2023-01-19T16:26:34.442Z,98554.44
2023-01-19T16:29:21.825Z,98559.59
2023-01-19T16:32:08.868Z,98560.44
2023-01-19T16:34:56.461Z,98557.16
2023-01-19T16:37:45.264Z,98565.66
2023-01-19T16:40:32.674Z,98564.88
2023-01-19T16:43:19.861Z,98566.59
2023-01-19T16:46:07.393Z,98567.50
2023-01-19T16:48:55.034Z,98564.06
2023-01-19T16:51:42.461Z,98568.41
2023-01-19T16:54:32.188Z,98569.28
2023-01-19T16:57:19.109Z,98569.28
2023-01-19T17:00:10.610Z,98572.75
2023-01-19T17:02:58.164Z,98567.69
2023-01-19T17:05:51.082Z,98567.69
2023-01-19T17:08:39.354Z,98560.16
2023-01-19T17:11:30.448Z,98565.31
2023-01-19T17:14:21.428Z,98565.31
2023-01-19T17:17:09.420Z,98567.16
2023-01-19T17:19:56.765Z,98562.06
2023-01-19T17:23:05.130Z,98573.03
2023-01-19T17:25:55.998Z,98566.31
2023-01-19T17:28:45.375Z,98568.84
2023-01-19T17:31:33.493Z,98567.25
2023-01-19T17:34:20.522Z,98571.47
2023-01-19T17:37:07.755Z,98577.38
2023-01-19T17:39:56.450Z,98573.22
2023-01-19T17:42:43.766Z,98579.09
2023-01-19T17:45:32.386Z,98569.03
2023-01-19T17:48:20.327Z,98574.94
2023-01-19T17:51:10.253Z,98575.00
2023-01-19T17:53:58.304Z,98574.19
2023-01-19T17:56:45.593Z,98571.66
2023-01-19T17:59:33.408Z,98586.88
2023-01-19T18:02:24.400Z,98589.50
2023-01-19T18:05:14.219Z,98586.06
2023-01-19T18:08:01.276Z,98594.56
2023-01-19T18:10:55.599Z,98589.50
2023-01-19T18:13:45.337Z,98599.66
2023-01-19T18:16:32.582Z,98603.81
2023-01-19T18:19:22.515Z,98597.91
2023-01-19T18:22:09.946Z,98594.56
2023-01-19T18:24:57.311Z,98597.91
2023-01-19T18:27:44.366Z,98597.13
2023-01-19T18:30:31.421Z,98598.84
2023-01-19T18:33:18.644Z,98597.13
2023-01-19T18:36:08.679Z,98599.66
2023-01-19T18:38:55.794Z,98600.53
2023-01-19T18:41:42.904Z,98592.13
2023-01-19T18:44:30.292Z,98592.94
2023-01-19T18:47:17.756Z,98608.16
2023-01-19T18:50:04.918Z,98603.06
2023-01-19T18:52:53.518Z,98613.31
2023-01-19T18:55:40.872Z,98600.81
2023-01-19T18:58:29.335Z,98606.59
2023-01-19T19:01:24.203Z,98617.63
2023-01-19T19:04:11.585Z,98613.50
2023-01-19T19:06:58.605Z,98610.97
2023-01-19T19:09:47.254Z,98619.47
2023-01-19T19:12:34.523Z,98616.94
2023-01-19T19:15:21.893Z,98614.41
2023-01-19T19:18:11.264Z,98618.56
2023-01-19T19:20:58.668Z,98616.94
2023-01-19T19:23:51.171Z,98617.03
2023-01-19T19:26:39.979Z,98617.03
2023-01-19T19:29:28.441Z,98620.47
2023-01-19T19:32:20.459Z,98618.72
2023-01-19T19:35:08.163Z,98621.25
2023-01-19T19:37:57.671Z,98621.34
2023-01-19T19:40:44.804Z,98616.28
2023-01-19T19:43:35.104Z,98618.00
2023-01-19T19:46:24.424Z,98623.09
2023-01-19T19:49:11.707Z,98628.16
2023-01-19T19:51:59.027Z,98623.88
2023-01-19T19:54:49.300Z,98632.41
2023-01-19T19:57:36.395Z,98632.41
2023-01-19T20:00:25.303Z,98635.75
2023-01-19T20:03:13.546Z,98631.59
2023-01-19T20:06:05.160Z,98635.00
2023-01-19T20:08:54.544Z,98638.47
2023-01-19T20:11:42.726Z,98639.38
2023-01-19T20:14:29.976Z,98636.84
2023-01-19T20:17:19.132Z,98636.84
2023-01-19T20:20:07.769Z,98645.25
2023-01-19T20:22:55.310Z,98641.09
2023-01-19T20:25:42.317Z,98636.84
2023-01-19T20:28:29.341Z,98639.38
2023-01-19T20:31:20.218Z,98644.53
2023-01-19T20:34:11.168Z,98639.47
2023-01-19T20:36:58.369Z,98650.41
2023-01-19T20:39:45.582Z,98653.03
2023-01-19T20:42:33.061Z,98644.63
2023-01-19T20:45:20.815Z,98645.53
2023-01-19T20:48:08.300Z,98650.59
2023-01-19T20:51:01.567Z,98651.31
2023-01-19T20:53:49.218Z,98652.94
2023-01-19T20:56:36.639Z,98645.34
2023-01-19T20:59:24.701Z,98650.41
2023-01-19T21:02:14.281Z,98647.97
2023-01-19T21:05:01.593Z,98654.03
2023-01-19T21:07:50.114Z,98658.38
2023-01-19T21:10:37.605Z,98654.22
2023-01-19T21:13:24.603Z,98657.63
2023-01-19T21:16:11.863Z,98651.75
2023-01-19T21:18:59.355Z,98658.53
2023-01-19T21:21:46.731Z,98662.88
2023-01-19T21:24:35.201Z,98663.78
2023-01-19T21:27:22.651Z,98669.75
2023-01-19T21:30:11.826Z,98672.28
2023-01-19T21:32:59.215Z,98671.38
2023-01-19T21:35:52.522Z,98670.59
2023-01-19T21:38:40.499Z,98685.03
2023-01-19T21:41:30.974Z,98681.69
2023-01-19T21:44:18.329Z,98685.13
2023-01-19T21:47:09.032Z,98680.88
2023-01-19T21:49:56.183Z,98685.22
2023-01-19T21:52:44.143Z,98680.25
2023-01-19T21:55:31.368Z,98681.13
2023-01-19T21:58:20.036Z,98685.47
2023-01-19T22:01:10.949Z,98692.25
2023-01-19T22:03:59.708Z,98695.69
2023-01-19T22:06:47.170Z,98697.41
2023-01-19T22:09:35.731Z,98695.78
2023-01-19T22:12:23.095Z,98709.19
2023-01-19T22:15:12.883Z,98707.47
2023-01-19T22:18:00.236Z,98710.81
2023-01-19T22:20:47.348Z,98715.88
2023-01-19T22:23:34.492Z,98715.06
2023-01-19T22:26:22.544Z,98717.50
2023-01-19T22:29:11.166Z,98715.97
2023-01-19T22:31:59.599Z,98718.50
2023-01-19T22:34:48.376Z,98721.03
2023-01-19T22:37:37.020Z,98720.22
2023-01-19T22:40:24.326Z,98721.09
2023-01-19T22:43:11.408Z,98723.72
2023-01-19T22:45:59.192Z,98717.88
2023-01-19T22:48:48.570Z,98720.41
2023-01-19T22:51:36.718Z,98721.09
2023-01-19T22:54:24.059Z,98728.63
2023-01-19T22:57:11.963Z,98721.94
2023-01-19T22:59:59.454Z,98725.19
2023-01-19T23:02:46.882Z,98734.53
2023-01-19T23:05:38.822Z,98729.47
2023-01-19T23:08:25.845Z,98727.81
2023-01-19T23:11:16.421Z,98732.88
2023-01-19T23:14:04.072Z,98727.00
2023-01-19T23:16:51.159Z,98721.94
2023-01-19T23:19:38.414Z,98727.00
2023-01-19T23:22:26.914Z,98729.56
2023-01-19T23:25:14.148Z,98733.78
2023-01-19T23:28:01.545Z,98728.72
2023-01-19T23:30:48.681Z,98734.63
2023-01-19T23:33:35.675Z,98730.44
2023-01-19T23:36:25.497Z,98735.50
2023-01-19T23:39:17.891Z,98744.09
2023-01-19T23:42:08.063Z,98737.47
2023-01-19T23:44:55.361Z,98741.72
2023-01-19T23:47:44.056Z,98743.53
2023-01-19T23:50:31.563Z,98741.88
2023-01-19T23:53:18.992Z,98754.53
2023-01-19T23:56:18.225Z,98752.00
2023-01-19T23:59:08.268Z,98752.94
